Time;durP1;ratioP1;P1;durP2;ratioP2;P2;SDS_P1;SDS_P2;PMS_P1;PMS_P2;Temp;Humidity;BMP_temperature;BMP_pressure;BME280_temperature;BME280_humidity;BME280_pressure;Samples;Min_cycle;Max_cycle;Signal;HPM_P1;HPM_P2
2021/06/22 00:01:10;;;;;;;0.10;0.10;;;;;;;17.27;61.13;101679.22;5055307;28;20040;-84
2021/06/22 00:03:37;;;;;;;0.10;0.10;;;;;;;17.32;60.57;101682.66;5055525;28;20029;-83
2021/06/22 00:06:03;;;;;;;0.20;0.20;;;;;;;17.26;60.18;101680.19;5055660;28;20029;-83
2021/06/22 00:08:31;;;;;;;0.10;0.10;;;;;;;17.25;60.43;101686.47;5055083;28;20111;-83
2021/06/22 00:10:57;;;;;;;0.05;0.05;;;;;;;17.26;60.61;101693.56;5055353;28;20021;-83
2021/06/22 00:13:24;;;;;;;0.10;0.10;;;;;;;17.31;60.43;101696.97;5055557;28;20388;-83
2021/06/22 00:15:50;;;;;;;0.10;0.10;;;;;;;17.31;60.19;101696.97;5055047;28;20033;-83
2021/06/22 00:18:16;;;;;;;0.10;0.10;;;;;;;17.32;60.44;101704.09;5055415;28;20178;-83
2021/06/22 00:20:43;;;;;;;0.10;0.10;;;;;;;17.35;60.39;101701.28;5054456;28;20395;-83
2021/06/22 00:23:09;;;;;;;0.10;0.10;;;;;;;17.25;60.40;101703.41;5054490;28;20099;-84
2021/06/22 00:25:36;;;;;;;0.10;0.10;;;;;;;17.29;60.91;101698.81;5054621;28;20043;-83
2021/06/22 00:28:02;;;;;;;0.10;0.10;;;;;;;17.25;61.17;101686.47;5054855;28;20047;-83
2021/06/22 00:30:29;;;;;;;0.13;0.13;;;;;;;17.33;60.10;101689.72;5055036;28;20066;-83
2021/06/22 00:32:55;;;;;;;0.52;0.52;;;;;;;17.30;59.97;101687.19;5054679;28;20024;-83
2021/06/22 00:35:22;;;;;;;0.10;0.10;;;;;;;17.29;60.22;101688.09;5055075;28;20116;-83
2021/06/22 00:37:48;;;;;;;0.10;0.10;;;;;;;17.26;59.70;101682.88;5054593;28;20028;-83
2021/06/22 00:40:16;;;;;;;0.10;0.10;;;;;;;17.19;59.88;101675.97;5054531;28;20426;-82
2021/06/22 00:42:44;;;;;;;2.35;0.57;;;;;;;17.14;60.15;101668.94;5054781;28;20032;-83
2021/06/22 00:45:13;;;;;;;0.10;0.10;;;;;;;17.21;60.38;101684.81;5053612;28;20090;-83
2021/06/22 00:47:40;;;;;;;0.10;0.10;;;;;;;17.14;60.62;101692.19;5054225;28;20083;-83
2021/06/22 00:50:08;;;;;;;0.32;0.32;;;;;;;17.20;60.40;101678.59;5054399;28;20032;-82
2021/06/22 00:52:37;;;;;;;0.10;0.10;;;;;;;17.16;60.11;101681.41;5054838;28;20033;-82
2021/06/22 00:55:11;;;;;;;0.10;0.10;;;;;;;17.19;60.28;101675.97;5054238;28;20067;-82
2021/06/22 00:57:38;;;;;;;0.10;0.10;;;;;;;17.17;60.10;101664.41;5054394;28;20021;-82
2021/06/22 01:00:07;;;;;;;0.10;0.10;;;;;;;17.20;60.46;101667.88;5054442;28;20033;-82
2021/06/22 01:02:34;;;;;;;0.17;0.17;;;;;;;17.20;60.73;101673.22;5054346;28;20032;-83
2021/06/22 01:05:00;;;;;;;0.10;0.10;;;;;;;17.17;60.44;101672.44;5054652;28;20033;-82
2021/06/22 01:07:27;;;;;;;0.10;0.10;;;;;;;17.20;60.39;101667.00;5054025;28;20480;-82
2021/06/22 01:09:56;;;;;;;0.10;0.10;;;;;;;17.25;60.30;101667.72;5054589;28;20033;-83
2021/06/22 01:12:23;;;;;;;0.10;0.10;;;;;;;17.16;60.35;101670.69;5054099;28;20028;-83
2021/06/22 01:14:49;;;;;;;0.00;0.00;;;;;;;17.11;60.63;101669.06;5054239;28;20040;-83
2021/06/22 01:17:15;;;;;;;0.10;0.10;;;;;;;17.12;60.62;101665.47;5054175;28;20029;-82
2021/06/22 01:19:43;;;;;;;0.10;0.10;;;;;;;17.08;60.84;101666.47;5053963;28;20036;-82
2021/06/22 01:22:09;;;;;;;0.10;0.10;;;;;;;17.09;61.13;101681.63;5054240;28;20040;-82
2021/06/22 01:24:37;;;;;;;0.20;0.20;;;;;;;17.09;60.87;101686.13;5054481;28;20033;-82
2021/06/22 01:27:04;;;;;;;0.08;0.08;;;;;;;17.06;60.84;101689.78;5053938;28;20033;-84
2021/06/22 01:29:30;;;;;;;0.10;0.10;;;;;;;17.01;61.10;101697.09;5061166;28;20036;-84
2021/06/22 01:31:58;;;;;;;4.32;0.70;;;;;;;17.10;61.02;101699.44;5058735;28;20036;-83
2021/06/22 01:34:27;;;;;;;0.10;0.10;;;;;;;17.05;61.86;101704.06;5054358;28;20025;-83
2021/06/22 01:36:54;;;;;;;0.10;0.10;;;;;;;17.14;61.89;101710.94;5054061;28;20483;-82
2021/06/22 01:39:21;;;;;;;0.35;0.35;;;;;;;17.16;61.60;101702.84;5055309;28;20028;-84
2021/06/22 01:41:47;;;;;;;0.30;0.30;;;;;;;17.15;61.50;101699.28;5053919;28;20094;-84
2021/06/22 01:44:15;;;;;;;0.10;0.10;;;;;;;17.18;61.60;101712.56;5080131;22;20045;-85
2021/06/22 01:46:41;;;;;;;0.10;0.10;;;;;;;17.20;61.33;101713.41;5074856;28;20074;-84
2021/06/22 01:49:08;;;;;;;0.10;0.10;;;;;;;17.21;61.33;101712.47;5073903;28;20070;-84
2021/06/22 01:51:34;;;;;;;0.10;0.10;;;;;;;17.20;61.48;101712.53;5074465;28;20032;-85
2021/06/22 01:54:02;;;;;;;0.10;0.10;;;;;;;17.22;61.02;101710.66;5075358;28;20171;-85
2021/06/22 01:56:33;;;;;;;0.10;0.10;;;;;;;17.25;61.28;101713.25;5074732;28;20069;-85
2021/06/22 01:59:02;;;;;;;0.05;0.05;;;;;;;17.27;60.89;101714.06;5074534;28;20095;-84
2021/06/22 02:01:30;;;;;;;0.17;0.17;;;;;;;17.30;60.79;101705.94;5074691;28;20035;-84
2021/06/22 02:03:57;;;;;;;0.20;0.20;;;;;;;17.30;61.33;101712.16;5074472;28;20028;-84
2021/06/22 02:06:25;;;;;;;0.10;0.10;;;;;;;17.36;60.81;101708.41;5074941;28;20017;-85
2021/06/22 02:08:51;;;;;;;0.10;0.10;;;;;;;17.36;60.86;101702.13;5074782;28;20484;-84
2021/06/22 02:11:18;;;;;;;0.10;0.10;;;;;;;17.34;61.13;101702.19;5074381;28;20036;-85
2021/06/22 02:13:45;;;;;;;0.28;0.28;;;;;;;17.34;60.76;101695.97;5075083;28;20029;-84
2021/06/22 02:16:12;;;;;;;0.10;0.10;;;;;;;17.35;61.18;101698.59;5072705;28;20029;-85
2021/06/22 02:18:40;;;;;;;0.10;0.10;;;;;;;17.38;60.84;101698.47;5072883;28;20491;-84
2021/06/22 02:21:06;;;;;;;0.10;0.10;;;;;;;17.36;60.84;101703.03;5074931;28;20375;-85
2021/06/22 02:23:34;;;;;;;0.10;0.10;;;;;;;17.35;60.87;101703.97;5074366;28;20045;-85
2021/06/22 02:26:01;;;;;;;0.10;0.10;;;;;;;17.34;60.65;101696.84;5074791;28;20056;-85
2021/06/22 02:28:27;;;;;;;0.10;0.10;;;;;;;17.37;60.84;101702.13;5073786;28;20078;-85
2021/06/22 02:30:55;;;;;;;0.10;0.10;;;;;;;17.40;61.24;101691.28;5074655;28;20367;-85
2021/06/22 02:33:21;;;;;;;0.10;0.10;;;;;;;17.41;61.13;101693.03;5074514;28;20468;-85
2021/06/22 02:35:48;;;;;;;0.10;0.10;;;;;;;17.42;60.81;101697.47;5074091;28;20021;-85
2021/06/22 02:38:15;;;;;;;0.35;0.35;;;;;;;17.44;60.67;101700.94;5073732;28;20025;-84
2021/06/22 02:40:42;;;;;;;0.10;0.10;;;;;;;17.40;60.99;101691.28;5073547;28;20067;-85
2021/06/22 02:43:08;;;;;;;0.10;0.10;;;;;;;17.46;60.91;101695.56;5074841;28;20021;-85
2021/06/22 02:45:36;;;;;;;0.10;0.10;;;;;;;17.44;61.79;101692.91;5074157;28;20033;-85
2021/06/22 02:48:03;;;;;;;0.10;0.10;;;;;;;17.42;61.28;101693.91;5073837;28;20058;-85
2021/06/22 02:50:30;;;;;;;0.17;0.15;;;;;;;17.46;61.31;101701.78;5074209;28;20071;-84
2021/06/22 02:52:56;;;;;;;0.10;0.10;;;;;;;17.45;61.07;101702.69;5074208;28;20032;-85
2021/06/22 02:55:24;;;;;;;0.43;0.43;;;;;;;17.43;61.18;101701.91;5073761;28;20429;-85
2021/06/22 02:57:53;;;;;;;0.10;0.10;;;;;;;17.25;62.04;101703.41;5074374;28;20185;-84
2021/06/22 03:00:24;;;;;;;0.10;0.10;;;;;;;17.39;61.94;101699.38;5074202;28;20111;-84
2021/06/22 03:02:52;;;;;;;0.10;0.10;;;;;;;17.45;61.84;101699.16;5073919;28;20029;-84
2021/06/22 03:05:19;;;;;;;0.00;0.00;;;;;;;17.35;62.16;101709.31;5073246;28;20494;-84
2021/06/22 03:07:46;;;;;;;0.08;0.08;;;;;;;17.25;62.85;101710.56;5075463;28;20031;-84
2021/06/22 03:10:15;;;;;;;0.00;0.00;;;;;;;17.24;62.96;101717.72;5077592;28;20028;-84
2021/06/22 03:12:42;;;;;;;0.00;0.00;;;;;;;17.17;63.69;101726.00;5077781;28;20029;-84
2021/06/22 03:15:11;;;;;;;0.10;0.10;;;;;;;17.20;63.08;101712.53;5092126;22;20395;-83
2021/06/22 03:17:37;;;;;;;0.10;0.10;;;;;;;17.21;63.47;101727.66;5076585;28;20578;-83
2021/06/22 03:20:06;;;;;;;0.15;0.15;;;;;;;17.20;63.91;101731.28;5077013;28;20371;-83
2021/06/22 03:22:32;;;;;;;0.00;0.00;;;;;;;17.26;62.91;101729.25;5076718;28;20029;-83
2021/06/22 03:24:58;;;;;;;0.10;0.10;;;;;;;17.21;63.41;101736.56;5076645;28;20442;-83
2021/06/22 03:27:25;;;;;;;0.10;0.10;;;;;;;17.17;64.31;101740.28;5076630;28;20025;-83
2021/06/22 03:29:51;;;;;;;0.20;0.20;;;;;;;17.16;64.31;101735.88;5076655;28;20029;-83
2021/06/22 03:32:19;;;;;;;0.00;0.00;;;;;;;17.20;64.06;101747.34;5076373;28;20024;-83
2021/06/22 03:34:45;;;;;;;0.10;0.10;;;;;;;17.18;64.09;101749.19;5075964;28;20119;-83
2021/06/22 03:37:11;;;;;;;0.20;0.20;;;;;;;17.24;63.92;101749.00;5076167;28;20463;-83
2021/06/22 03:39:38;;;;;;;0.00;0.00;;;;;;;17.24;63.37;101747.16;5076154;28;20428;-83
2021/06/22 03:42:07;;;;;;;0.10;0.10;;;;;;;17.28;63.34;101755.97;5076242;28;20032;-83
2021/06/22 03:44:34;;;;;;;0.10;0.10;;;;;;;17.32;63.50;101746.03;5075913;28;20033;-81
2021/06/22 03:47:01;;;;;;;0.17;0.17;;;;;;;17.34;63.36;101745.06;5076021;28;20029;-83
2021/06/22 03:49:27;;;;;;;0.10;0.10;;;;;;;17.38;62.97;101735.97;5076486;28;20028;-83
2021/06/22 03:51:54;;;;;;;0.10;0.10;;;;;;;17.36;63.48;101736.97;5076007;28;20025;-83
2021/06/22 03:54:21;;;;;;;0.10;0.10;;;;;;;17.36;63.06;101735.19;5075658;28;20024;-83
2021/06/22 03:56:47;;;;;;;0.10;0.10;;;;;;;17.36;63.15;101745.91;5076321;28;20033;-83
2021/06/22 03:59:13;;;;;;;0.10;0.10;;;;;;;17.33;63.06;101729.91;5075905;28;20102;-83
2021/06/22 04:01:39;;;;;;;0.10;0.10;;;;;;;17.35;63.46;101736.09;5075374;28;20435;-83
2021/06/22 04:04:06;;;;;;;0.00;0.00;;;;;;;17.32;63.05;101725.50;5075597;28;20039;-83
2021/06/22 04:06:32;;;;;;;0.08;0.08;;;;;;;17.33;63.21;101731.72;5075941;28;20024;-81
2021/06/22 04:08:58;;;;;;;0.10;0.10;;;;;;;17.34;63.11;101733.50;5075605;28;20372;-83
2021/06/22 04:11:24;;;;;;;0.20;0.20;;;;;;;17.33;63.26;101732.59;5075507;28;20031;-83
2021/06/22 04:13:51;;;;;;;0.10;0.10;;;;;;;17.35;62.99;101730.75;5075212;28;20036;-83
2021/06/22 04:16:17;;;;;;;0.10;0.10;;;;;;;17.37;63.15;101728.00;5075903;28;20037;-83
2021/06/22 04:18:43;;;;;;;0.10;0.10;;;;;;;17.26;63.56;101742.66;5075495;28;20055;-83
2021/06/22 04:21:10;;;;;;;0.20;0.20;;;;;;;17.38;63.36;101730.63;5075667;28;20523;-84
2021/06/22 04:23:37;;;;;;;0.20;0.20;;;;;;;17.36;63.19;101729.81;5075377;28;20033;-84
2021/06/22 04:26:03;;;;;;;0.10;0.10;;;;;;;17.38;63.41;101738.66;5075623;28;20536;-84
2021/06/22 04:28:29;;;;;;;0.35;0.35;;;;;;;17.41;63.03;101740.38;5075638;28;20368;-83
2021/06/22 04:30:55;;;;;;;0.10;0.10;;;;;;;17.41;62.88;101762.69;5075383;28;20047;-83
2021/06/22 04:33:21;;;;;;;0.10;0.10;;;;;;;17.41;62.98;101746.59;5075032;28;20121;-83
2021/06/22 04:35:47;;;;;;;0.10;0.10;;;;;;;17.43;63.39;101749.22;5075601;28;20036;-83
2021/06/22 04:38:14;;;;;;;0.10;0.10;;;;;;;17.45;63.91;101748.25;5075318;28;20101;-83
2021/06/22 04:40:40;;;;;;;0.10;0.10;;;;;;;17.37;63.19;101742.28;5074626;28;20183;-83
2021/06/22 04:43:07;;;;;;;0.10;0.10;;;;;;;17.41;63.88;101745.75;5075582;28;20028;-83
2021/06/22 04:45:35;;;;;;;0.10;0.10;;;;;;;17.49;63.51;101748.16;5074740;28;20475;-83
2021/06/22 04:48:02;;;;;;;0.17;0.17;;;;;;;17.47;63.75;101745.53;5074933;28;20112;-83
2021/06/22 04:50:28;;;;;;;0.00;0.00;;;;;;;17.52;63.73;101745.34;5074628;28;20020;-83
2021/06/22 04:52:55;;;;;;;0.10;0.10;;;;;;;17.49;63.50;101745.47;5074170;28;20051;-83
2021/06/22 04:55:25;;;;;;;1.27;1.13;;;;;;;17.54;63.14;101751.53;5074619;28;20037;-83
2021/06/22 04:57:56;;;;;;;0.10;0.10;;;;;;;17.54;62.92;101747.03;5074195;28;20501;-83
2021/06/22 05:00:22;;;;;;;0.15;0.15;;;;;;;17.46;63.33;101754.50;5074869;28;20132;-83
2021/06/22 05:02:48;;;;;;;0.10;0.10;;;;;;;17.49;63.07;101758.88;5075086;28;20033;-83
2021/06/22 05:05:15;;;;;;;0.10;0.10;;;;;;;17.50;62.81;101766.00;5074009;28;20052;-83
2021/06/22 05:07:41;;;;;;;0.10;0.10;;;;;;;17.39;63.28;101764.53;5074608;28;20475;-83
2021/06/22 05:10:09;;;;;;;0.10;0.10;;;;;;;17.30;63.23;101776.44;5074582;28;20376;-83
2021/06/22 05:12:35;;;;;;;0.10;0.10;;;;;;;17.28;62.24;101778.31;5074405;28;20031;-83
2021/06/22 05:15:02;;;;;;;0.10;0.10;;;;;;;17.38;62.29;101786.00;5073635;28;20495;-84
2021/06/22 05:17:28;;;;;;;0.35;0.35;;;;;;;17.28;62.15;101789.00;5074274;28;20539;-83
2021/06/22 05:19:55;;;;;;;0.15;0.15;;;;;;;17.42;62.01;101784.97;5074240;28;20425;-82
2021/06/22 05:22:21;;;;;;;0.00;0.00;;;;;;;17.42;62.58;101784.97;5074524;28;20056;-82
2021/06/22 05:24:47;;;;;;;0.10;0.10;;;;;;;17.48;62.20;101799.97;5074576;28;20029;-83
2021/06/22 05:27:14;;;;;;;0.38;0.38;;;;;;;17.44;61.42;101804.56;5073811;28;20036;-83
2021/06/22 05:29:41;;;;;;;0.68;0.68;;;;;;;17.37;61.80;101803.91;5072483;28;20020;-83
2021/06/22 05:32:07;;;;;;;0.10;0.10;;;;;;;17.48;61.97;101808.03;5073469;28;20032;-83
2021/06/22 05:34:34;;;;;;;0.32;0.32;;;;;;;17.50;61.79;101806.19;5073611;28;20488;-83
2021/06/22 05:37:00;;;;;;;0.20;0.20;;;;;;;17.50;61.40;101798.13;5074107;28;20032;-82
2021/06/22 05:39:26;;;;;;;1.13;0.63;;;;;;;17.52;61.80;101798.94;5074327;28;20491;-81
2021/06/22 05:41:52;;;;;;;0.10;0.10;;;;;;;17.46;61.47;101805.41;5074002;28;20039;-82
2021/06/22 05:44:19;;;;;;;0.10;0.10;;;;;;;17.41;61.61;101802.88;5074058;28;20124;-82
2021/06/22 05:46:45;;;;;;;0.32;0.32;;;;;;;17.44;61.02;101805.44;5074547;28;20033;-81
2021/06/22 05:49:11;;;;;;;0.45;0.45;;;;;;;17.37;60.65;101803.91;5074145;28;20033;-82
2021/06/22 05:51:37;;;;;;;0.55;0.55;;;;;;;17.42;60.41;101804.63;5074730;28;20020;-81
2021/06/22 05:54:04;;;;;;;0.38;0.38;;;;;;;17.30;60.61;101797.84;5073784;28;20040;-81
2021/06/22 05:56:30;;;;;;;0.10;0.10;;;;;;;17.22;59.77;101801.72;5073965;28;20040;-82
2021/06/22 05:58:56;;;;;;;0.43;0.43;;;;;;;17.34;60.25;101804.00;5073961;28;20048;-82
2021/06/22 06:01:22;;;;;;;0.45;0.45;;;;;;;17.40;60.62;101802.94;5073748;28;20043;-82
2021/06/22 06:03:50;;;;;;;0.10;0.10;;;;;;;17.39;60.59;101812.75;5073929;28;20119;-85
2021/06/22 06:06:16;;;;;;;0.55;0.55;;;;;;;17.48;60.03;101806.19;5073378;28;20016;-82
2021/06/22 06:08:42;;;;;;;0.65;0.65;;;;;;;17.44;58.96;101809.94;5081929;28;20035;-83
2021/06/22 06:11:09;;;;;;;0.35;0.35;;;;;;;17.49;58.62;101810.63;5083379;28;20401;-82
2021/06/22 06:13:37;;;;;;;0.47;0.47;;;;;;;17.44;58.89;101815.28;5084014;28;20068;-83
2021/06/22 06:16:04;;;;;;;1.50;1.10;;;;;;;17.37;58.61;101809.25;5081391;28;20020;-82
2021/06/22 06:18:30;;;;;;;0.40;0.40;;;;;;;17.44;59.08;101810.78;5082959;28;20028;-83
2021/06/22 06:20:57;;;;;;;0.10;0.10;;;;;;;17.51;59.23;101813.25;5083272;28;20111;-83
2021/06/22 06:23:28;;;;;;;1.70;0.40;;;;;;;17.69;59.06;101815.31;5078427;28;20531;-83
2021/06/22 06:25:55;;;;;;;0.22;0.22;;;;;;;17.79;58.74;101810.50;5072982;28;20032;-83
2021/06/22 06:28:26;;;;;;;2.20;0.95;;;;;;;17.88;59.21;101814.69;5071851;28;20435;-82
2021/06/22 06:30:52;;;;;;;0.10;0.10;;;;;;;18.02;58.57;101807.06;5075807;28;20071;-83
2021/06/22 06:33:19;;;;;;;0.93;0.93;;;;;;;18.08;58.42;101814.88;5083473;28;20027;-83
2021/06/22 06:35:45;;;;;;;0.57;0.57;;;;;;;18.07;57.64;101813.13;5083362;28;20024;-82
2021/06/22 06:38:11;;;;;;;0.20;0.20;;;;;;;18.18;57.79;101807.38;5084006;28;20043;-83
2021/06/22 06:40:37;;;;;;;0.20;0.20;;;;;;;18.33;57.99;101816.69;5079076;28;20024;-83
2021/06/22 06:43:04;;;;;;;2.40;0.43;;;;;;;18.34;56.49;101810.34;5084095;28;20073;-82
2021/06/22 06:45:30;;;;;;;0.20;0.20;;;;;;;18.36;56.50;101805.81;5087658;28;20024;-83
2021/06/22 06:47:57;;;;;;;0.30;0.30;;;;;;;18.24;55.48;101804.47;5082793;28;20054;-82
2021/06/22 06:50:23;;;;;;;0.88;0.88;;;;;;;18.31;56.05;101809.63;5085549;28;20089;-82
2021/06/22 06:52:51;;;;;;;1.00;1.00;;;;;;;18.40;57.04;101802.06;5092594;28;20411;-83
2021/06/22 06:55:25;;;;;;;0.43;0.30;;;;;;;18.32;56.05;101817.59;5078982;28;20033;-85
2021/06/22 06:57:53;;;;;;;0.15;0.15;;;;;;;18.22;57.03;101817.06;5072601;28;20116;-84
2021/06/22 07:00:20;;;;;;;7.45;1.15;;;;;;;18.39;56.63;101812.88;5075201;28;20029;-83
2021/06/22 07:02:47;;;;;;;0.10;0.10;;;;;;;18.43;56.98;101812.72;5075595;28;20697;-84
2021/06/22 07:05:13;;;;;;;1.77;0.68;;;;;;;18.34;56.72;101821.09;5075227;28;20079;-84
2021/06/22 07:07:39;;;;;;;0.20;0.20;;;;;;;18.58;57.02;101822.00;5075138;28;20033;-84
2021/06/22 07:10:06;;;;;;;0.45;0.45;;;;;;;18.51;56.32;101820.47;5075140;28;20027;-84
2021/06/22 07:12:32;;;;;;;0.40;0.40;;;;;;;18.55;56.08;101823.91;5075010;28;20475;-84
2021/06/22 07:14:58;;;;;;;0.20;0.20;;;;;;;18.54;55.15;101835.56;5075161;28;20117;-84
2021/06/22 07:17:24;;;;;;;0.57;0.52;;;;;;;18.56;56.32;101831.91;5078901;28;20120;-84
2021/06/22 07:19:50;;;;;;;0.45;0.45;;;;;;;18.63;54.71;101842.41;5095350;28;20059;-84
2021/06/22 07:22:17;;;;;;;2.08;1.10;;;;;;;18.86;55.01;101839.69;5090845;28;20064;-83
2021/06/22 07:24:43;;;;;;;0.40;0.40;;;;;;;19.10;55.02;101845.06;5086058;28;20061;-83
2021/06/22 07:27:11;;;;;;;0.52;0.52;;;;;;;19.24;54.05;101848.09;5094827;28;20506;-84
2021/06/22 07:29:37;;;;;;;0.20;0.20;;;;;;;19.40;53.04;101842.97;5094948;28;20611;-83
2021/06/22 07:32:08;;;;;;;0.20;0.20;;;;;;;19.64;53.39;101845.56;5095012;28;20479;-84
2021/06/22 07:34:35;;;;;;;0.52;0.52;;;;;;;19.80;53.55;101848.47;5090725;28;20044;-83
2021/06/22 07:37:02;;;;;;;0.20;0.20;;;;;;;19.91;52.95;101841.78;5074622;28;20025;-84
2021/06/22 07:39:30;;;;;;;0.10;0.10;;;;;;;19.80;52.19;101844.91;5073855;28;20036;-83
2021/06/22 07:41:57;;;;;;;0.10;0.10;;;;;;;19.94;52.03;101839.84;5074513;28;20199;-86
2021/06/22 07:44:24;;;;;;;0.20;0.20;;;;;;;19.84;52.09;101843.88;5075851;22;20033;-93
2021/06/22 07:46:50;;;;;;;0.80;0.80;;;;;;;19.84;51.75;101842.06;5036932;28;20033;-94
2021/06/22 07:49:16;;;;;;;0.82;0.82;;;;;;;19.82;51.26;101840.34;5036187;28;20021;-90
2021/06/22 07:51:43;;;;;;;0.68;0.68;;;;;;;19.83;51.51;101844.81;5037478;28;20030;-95
2021/06/22 07:54:09;;;;;;;0.55;0.55;;;;;;;19.83;50.77;101834.06;5036231;28;20036;-95
2021/06/22 07:56:38;;;;;;;0.30;0.30;;;;;;;20.12;51.42;101830.06;5040547;28;20034;-96
2021/06/22 07:59:04;;;;;;;1.20;1.05;;;;;;;20.20;50.15;101836.00;5050346;28;20476;-96
2021/06/22 08:01:34;;;;;;;0.22;0.22;;;;;;;20.07;49.44;101831.25;5045191;28;20034;-96
2021/06/22 08:04:01;;;;;;;0.93;0.93;;;;;;;20.11;48.66;101827.47;5216991;22;20085;-96
2021/06/22 08:06:27;;;;;;;2.92;0.63;;;;;;;20.29;48.98;101836.53;5087030;28;20033;-92
2021/06/22 08:08:53;;;;;;;1.67;1.58;;;;;;;20.32;48.29;101831.88;5085955;28;20056;-96
2021/06/22 08:11:20;;;;;;;0.20;0.20;;;;;;;20.27;49.13;101839.28;5067867;28;20047;-95
2021/06/22 08:16:15;;;;;;;0.20;0.20;;;;;;;20.61;48.23;101829.69;5050181;28;20424;-96
2021/06/22 08:18:42;;;;;;;0.93;0.88;;;;;;;20.53;46.34;101839.91;5028580;28;20117;-96
2021/06/22 08:21:08;;;;;;;0.28;0.28;;;;;;;20.44;46.61;101835.84;5043335;28;20064;-96
2021/06/22 08:23:34;;;;;;;2.58;1.45;;;;;;;20.43;46.94;101841.28;5009567;28;20029;-96
2021/06/22 08:26:01;;;;;;;0.20;0.20;;;;;;;20.46;46.64;101839.34;5041455;28;20021;-95
2021/06/22 08:28:27;;;;;;;0.20;0.20;;;;;;;20.48;46.43;101836.56;5039120;28;20057;-96
2021/06/22 08:30:54;;;;;;;0.28;0.28;;;;;;;20.39;46.40;101836.97;5039360;28;20465;-94
2021/06/22 08:33:20;;;;;;;2.10;1.88;;;;;;;20.40;46.96;101839.63;5036426;28;20488;-96
2021/06/22 08:35:47;;;;;;;0.82;0.82;;;;;;;20.31;46.47;101834.63;5037595;28;20029;-96
2021/06/22 08:38:15;;;;;;;0.43;0.43;;;;;;;20.29;45.24;101836.53;5038429;28;20036;-94
2021/06/22 08:40:44;;;;;;;0.30;0.30;;;;;;;20.60;46.41;101832.41;5019913;28;20477;-95
2021/06/22 08:43:12;;;;;;;0.57;0.57;;;;;;;20.45;45.58;101831.31;5037044;28;20026;-94
2021/06/22 08:45:40;;;;;;;0.20;0.20;;;;;;;20.61;46.04;101834.16;5037213;28;20021;-94
2021/06/22 08:48:09;;;;;;;0.20;0.20;;;;;;;20.64;45.15;101842.13;5037552;28;20029;-93
2021/06/22 08:50:39;;;;;;;0.35;0.35;;;;;;;20.50;45.37;101840.06;5034837;28;20037;-92
2021/06/22 08:53:06;;;;;;;0.52;0.52;;;;;;;20.48;45.05;101844.66;5017251;28;20088;-94
2021/06/22 08:55:33;;;;;;;0.85;0.57;;;;;;;20.55;45.43;101845.22;5035430;28;20424;-93
2021/06/22 08:58:05;;;;;;;0.32;0.32;;;;;;;20.51;46.47;101842.69;5034730;28;20039;-89
2021/06/22 09:00:34;;;;;;;;;;;;;;;20.81;44.74;101835.94;5035261;28;20104;-93
2021/06/22 09:03:04;;;;;;;2.65;1.02;;;;;;;20.69;44.26;101845.47;5031922;28;19963;-93
2021/06/22 09:05:31;;;;;;;0.20;0.20;;;;;;;20.91;44.74;101848.06;5033976;28;20026;-93
2021/06/22 09:07:58;;;;;;;0.10;0.10;;;;;;;21.09;43.21;101845.44;5033915;28;20025;-92
2021/06/22 09:10:29;;;;;;;1.67;1.42;;;;;;;20.83;42.15;101847.53;5034906;28;20034;-91
2021/06/22 09:12:57;;;;;;;0.25;0.25;;;;;;;20.90;44.64;101840.91;5033182;28;20094;-89
2021/06/22 09:18:03;;;;;;;0.77;0.77;;;;;;;21.16;45.12;101850.44;5079095;27;20171;-85
2021/06/22 09:23:25;;;;;;;0.43;0.43;;;;;;;20.99;44.36;101840.47;5138412;27;20336;-85
2021/06/22 09:25:54;;;;;;;1.33;1.33;;;;;;;21.01;46.35;101841.28;5109847;28;20063;-85
2021/06/22 09:28:26;;;;;;;0.20;0.20;;;;;;;20.72;44.84;101839.09;5110067;28;20028;-85
2021/06/22 09:33:41;;;;;;;0.55;0.55;;;;;;;20.47;46.21;101834.81;5083616;27;20621;-85
2021/06/22 09:36:26;;;;;;;0.30;0.30;;;;;;;20.49;46.33;101835.63;5069263;28;20120;-84
2021/06/22 09:41:33;;;;;;;0.50;0.50;;;;;;;20.38;47.54;101829.88;5092141;27;20129;-85
2021/06/22 09:44:06;;;;;;;0.13;0.13;;;;;;;20.51;47.65;101831.03;5101785;28;20501;-86
2021/06/22 09:49:33;;;;;;;0.13;0.13;;;;;;;21.16;46.65;101833.41;5125749;27;20153;-84
2021/06/22 09:52:04;;;;;;;2.72;1.17;;;;;;;21.13;44.07;101838.94;5110310;28;20059;-85
2021/06/22 09:57:15;;;;;;;0.10;0.10;;;;;;;21.65;42.81;101833.66;5125908;27;20139;-84
2021/06/22 10:00:03;;;;;;;0.20;0.20;;;;;;;21.82;41.73;101837.34;5109861;28;20395;-85
2021/06/22 10:02:29;;;;;;;0.10;0.10;;;;;;;22.00;42.07;101845.41;5110373;28;20501;-85
2021/06/22 10:04:59;;;;;;;4.40;0.50;;;;;;;21.78;41.45;101836.63;5110020;28;20035;-84
2021/06/22 10:07:27;;;;;;;0.65;0.65;;;;;;;22.49;41.26;101841.94;5102426;28;20031;-84
2021/06/22 10:09:56;;;;;;;0.10;0.10;;;;;;;22.54;40.54;101832.66;5099036;28;20047;-85
2021/06/22 10:12:26;;;;;;;0.00;0.00;;;;;;;22.71;40.15;101834.38;5099263;28;20629;-85
2021/06/22 10:14:54;;;;;;;0.47;0.47;;;;;;;22.73;40.84;101837.88;5099379;28;20077;-85
2021/06/22 10:17:24;;;;;;;0.10;0.10;;;;;;;22.73;40.80;101840.59;5098083;28;20028;-84
2021/06/22 10:19:53;;;;;;;0.10;0.10;;;;;;;22.54;39.65;101842.56;5097926;28;20089;-84
2021/06/22 10:22:23;;;;;;;0.17;0.17;;;;;;;22.51;39.96;101845.44;5095408;28;20028;-84
2021/06/22 10:24:49;;;;;;;0.20;0.20;;;;;;;22.48;40.54;101843.78;5109292;28;20054;-84
2021/06/22 10:27:19;;;;;;;0.82;0.82;;;;;;;22.31;41.38;101850.06;5109436;28;20027;-85
2021/06/22 10:29:50;;;;;;;0.10;0.10;;;;;;;22.51;39.55;101840.91;5109109;28;20032;-86
2021/06/22 10:32:16;;;;;;;0.10;0.10;;;;;;;22.77;40.80;101838.59;5109950;28;20028;-86
2021/06/22 10:34:52;;;;;;;0.30;0.30;;;;;;;22.78;41.65;101840.34;5109206;28;20032;-85
2021/06/22 10:37:34;;;;;;;0.20;0.20;;;;;;;22.98;38.76;101839.22;5109587;28;20467;-86
2021/06/22 10:40:04;;;;;;;;;;;;;;;23.28;40.27;101835.75;5111264;28;20504;-84
2021/06/22 10:42:51;;;;;;;0.22;0.22;;;;;;;23.11;39.33;101836.66;5109898;28;19916;-86
2021/06/22 10:45:18;;;;;;;0.30;0.30;;;;;;;22.92;40.90;101828.75;5109732;28;20039;-85
2021/06/22 10:47:49;;;;;;;0.10;0.10;;;;;;;22.85;42.27;101836.31;5104422;28;20479;-85
2021/06/22 10:58:30;;;;;;;0.20;0.20;;;;;;;23.16;41.14;101831.91;5078869;27;20157;-84
2021/06/22 11:03:37;;;;;;;0.77;0.77;;;;;;;23.62;40.37;101830.19;5080496;27;20152;-83
2021/06/22 11:08:53;;;;;;;0.38;0.38;;;;;;;24.11;40.03;101829.91;5074468;28;20507;-84
2021/06/22 11:11:20;;;;;;;0.30;0.30;;;;;;;24.19;38.42;101829.47;5077284;28;20036;-85
2021/06/22 11:13:58;;;;;;;0.47;0.32;;;;;;;23.88;40.01;101828.59;5069884;28;20059;-84
2021/06/22 11:16:28;;;;;;;0.20;0.20;;;;;;;23.67;40.68;101828.06;5053487;28;20440;-84
2021/06/22 11:21:36;;;;;;;0.15;0.15;;;;;;;23.74;41.04;101824.91;5066633;27;20220;-85
2021/06/22 11:29:26;;;;;;;0.30;0.30;;;;;;;24.17;42.54;101824.13;5081015;27;20646;-84
2021/06/22 11:34:53;;;;;;;1.98;1.55;;;;;;;24.01;41.20;101828.75;5105577;27;20135;-88
2021/06/22 11:37:23;;;;;;;0.10;0.10;;;;;;;23.86;41.49;101819.69;5081847;28;20040;-85
2021/06/22 11:40:10;;;;;;;0.68;0.68;;;;;;;23.58;41.69;101827.66;5087523;28;20038;-84
2021/06/22 11:42:38;;;;;;;0.60;0.60;;;;;;;23.52;40.83;101832.56;5088724;28;20024;-84
2021/06/22 11:50:27;;;;;;;0.45;0.45;;;;;;;23.00;42.30;101831.00;5068381;27;20178;-85
2021/06/22 11:53:03;;;;;;;0.10;0.10;;;;;;;23.09;41.42;101835.88;5064413;28;20032;-85
2021/06/22 11:55:37;;;;;;;0.10;0.10;;;;;;;23.32;42.58;101836.44;5030131;28;20528;-85
2021/06/22 11:58:04;;;;;;;0.10;0.10;;;;;;;23.48;41.96;101834.56;5029549;28;20058;-85
2021/06/22 12:00:33;;;;;;;0.35;0.35;;;;;;;23.58;41.68;101833.06;5029477;28;20025;-85
2021/06/22 12:03:01;;;;;;;0.10;0.10;;;;;;;23.77;40.67;101831.09;5029616;28;20057;-85
2021/06/22 12:05:29;;;;;;;0.70;0.70;;;;;;;23.93;40.26;101841.91;5029083;28;20049;-85
2021/06/22 12:08:00;;;;;;;0.20;0.20;;;;;;;23.99;40.12;101846.91;5029420;28;20040;-84
2021/06/22 12:10:48;;;;;;;0.20;0.20;;;;;;;24.17;40.53;101848.50;5028825;28;20036;-84
2021/06/22 12:16:33;;;;;;;11.07;0.75;;;;;;;24.42;39.99;101840.69;5114844;27;20579;-85
2021/06/22 12:19:04;;;;;;;0.13;0.13;;;;;;;24.39;37.90;101839.03;5107562;28;20024;-85
2021/06/22 12:21:34;;;;;;;0.10;0.10;;;;;;;24.62;38.80;101836.72;5109799;28;20035;-85